sensor_id;sensor_type;location;lat;lon;timestamp;pressure;altitude;pressure_sealevel;temperature;humidity
70488;BME280;57976;48.174;16.370;2023-09-12T00:00:39;98892.35;;;22.25;82.91
70488;BME280;57976;48.174;16.370;2023-09-12T00:02:44;98889.63;;;22.26;82.79
70488;BME280;57976;48.174;16.370;2023-09-12T00:04:49;98887.12;;;22.26;83.01
70488;BME280;57976;48.174;16.370;2023-09-12T00:06:54;98888.00;;;22.26;82.93
70488;BME280;57976;48.174;16.370;2023-09-12T00:09:02;98888.29;;;22.24;83.01
70488;BME280;57976;48.174;16.370;2023-09-12T00:11:09;98886.89;;;22.23;83.09
70488;BME280;57976;48.174;16.370;2023-09-12T00:13:14;98883.37;;;22.21;83.09
70488;BME280;57976;48.174;16.370;2023-09-12T00:15:20;98886.31;;;22.21;83.14
70488;BME280;57976;48.174;16.370;2023-09-12T00:17:25;98881.39;;;22.19;83.24
70488;BME280;57976;48.174;16.370;2023-09-12T00:19:30;98882.93;;;22.17;83.27
70488;BME280;57976;48.174;16.370;2023-09-12T00:21:36;98878.86;;;22.16;83.32
70488;BME280;57976;48.174;16.370;2023-09-12T00:23:41;98879.02;;;22.17;83.39
70488;BME280;57976;48.174;16.370;2023-09-12T00:25:46;98877.92;;;22.18;83.29
70488;BME280;57976;48.174;16.370;2023-09-12T00:27:51;98875.71;;;22.17;83.23
70488;BME280;57976;48.174;16.370;2023-09-12T00:29:56;98872.73;;;22.18;83.12
70488;BME280;57976;48.174;16.370;2023-09-12T00:32:04;98869.79;;;22.17;83.12
70488;BME280;57976;48.174;16.370;2023-09-12T00:34:09;98870.27;;;22.18;83.03
70488;BME280;57976;48.174;16.370;2023-09-12T00:36:15;98868.85;;;22.20;82.98
70488;BME280;57976;48.174;16.370;2023-09-12T00:38:20;98870.34;;;22.22;82.75
70488;BME280;57976;48.174;16.370;2023-09-12T00:40:25;98869.56;;;22.25;82.50
70488;BME280;57976;48.174;16.370;2023-09-12T00:42:30;98871.80;;;22.27;82.39
70488;BME280;57976;48.174;16.370;2023-09-12T00:44:35;98867.89;;;22.28;82.19
70488;BME280;57976;48.174;16.370;2023-09-12T00:46:41;98871.20;;;22.28;82.05
70488;BME280;57976;48.174;16.370;2023-09-12T00:48:48;98869.42;;;22.27;82.13
70488;BME280;57976;48.174;16.370;2023-09-12T00:50:54;98868.55;;;22.26;82.16
70488;BME280;57976;48.174;16.370;2023-09-12T00:53:01;98868.18;;;22.26;82.10
70488;BME280;57976;48.174;16.370;2023-09-12T00:55:08;98864.34;;;22.25;82.11
70488;BME280;57976;48.174;16.370;2023-09-12T00:57:13;98869.50;;;22.25;82.19
70488;BME280;57976;48.174;16.370;2023-09-12T00:59:19;98870.56;;;22.27;82.32
70488;BME280;57976;48.174;16.370;2023-09-12T01:04:38;98869.79;;;22.28;82.66
70488;BME280;57976;48.174;16.370;2023-09-12T01:06:45;98867.55;;;22.25;82.48
70488;BME280;57976;48.174;16.370;2023-09-12T01:08:50;98861.39;;;22.22;82.58
70488;BME280;57976;48.174;16.370;2023-09-12T01:10:56;98859.95;;;22.19;82.53
70488;BME280;57976;48.174;16.370;2023-09-12T01:13:07;98864.23;;;22.18;82.80
70488;BME280;57976;48.174;16.370;2023-09-12T01:15:12;98863.92;;;22.17;82.70
70488;BME280;57976;48.174;16.370;2023-09-12T01:17:17;98862.13;;;22.13;82.45
70488;BME280;57976;48.174;16.370;2023-09-12T01:19:22;98866.73;;;22.10;82.50
70488;BME280;57976;48.174;16.370;2023-09-12T01:21:39;98866.12;;;22.05;82.50
70488;BME280;57976;48.174;16.370;2023-09-12T01:23:55;98867.30;;;22.00;82.86
70488;BME280;57976;48.174;16.370;2023-09-12T01:26:19;98868.59;;;21.96;83.41
70488;BME280;57976;48.174;16.370;2023-09-12T01:28:30;98867.86;;;21.92;83.88
70488;BME280;57976;48.174;16.370;2023-09-12T01:30:40;98870.60;;;21.89;84.51
70488;BME280;57976;48.174;16.370;2023-09-12T01:32:47;98872.38;;;21.83;85.07
70488;BME280;57976;48.174;16.370;2023-09-12T01:34:51;98878.39;;;21.78;85.65
70488;BME280;57976;48.174;16.370;2023-09-12T01:36:56;98879.61;;;21.73;86.25
70488;BME280;57976;48.174;16.370;2023-09-12T01:39:01;98881.30;;;21.67;86.85
70488;BME280;57976;48.174;16.370;2023-09-12T01:41:07;98875.08;;;21.59;87.37
70488;BME280;57976;48.174;16.370;2023-09-12T01:43:13;98881.30;;;21.52;87.91
70488;BME280;57976;48.174;16.370;2023-09-12T01:45:21;98882.02;;;21.43;88.29
70488;BME280;57976;48.174;16.370;2023-09-12T01:47:31;98878.98;;;21.35;89.02
70488;BME280;57976;48.174;16.370;2023-09-12T01:49:37;98879.70;;;21.25;89.74
70488;BME280;57976;48.174;16.370;2023-09-12T01:51:42;98884.98;;;21.20;90.37
70488;BME280;57976;48.174;16.370;2023-09-12T01:53:48;98889.71;;;21.17;90.77
70488;BME280;57976;48.174;16.370;2023-09-12T01:55:54;98891.20;;;21.14;91.23
70488;BME280;57976;48.174;16.370;2023-09-12T01:58:01;98891.92;;;21.10;91.49
70488;BME280;57976;48.174;16.370;2023-09-12T02:00:08;98894.77;;;21.03;92.00
70488;BME280;57976;48.174;16.370;2023-09-12T02:02:13;98894.61;;;20.98;92.53
70488;BME280;57976;48.174;16.370;2023-09-12T02:04:18;98899.98;;;20.95;93.08
70488;BME280;57976;48.174;16.370;2023-09-12T02:06:23;98899.13;;;20.93;93.61
70488;BME280;57976;48.174;16.370;2023-09-12T02:08:28;98903.52;;;20.92;93.79
70488;BME280;57976;48.174;16.370;2023-09-12T02:10:33;98901.69;;;20.92;94.35
70488;BME280;57976;48.174;16.370;2023-09-12T02:12:38;98904.45;;;20.91;94.33
70488;BME280;57976;48.174;16.370;2023-09-12T02:14:43;98900.02;;;20.89;94.76
70488;BME280;57976;48.174;16.370;2023-09-12T02:16:48;98898.70;;;20.90;94.75
70488;BME280;57976;48.174;16.370;2023-09-12T02:18:57;98903.05;;;20.90;94.72
70488;BME280;57976;48.174;16.370;2023-09-12T02:21:02;98904.68;;;20.88;95.09
70488;BME280;57976;48.174;16.370;2023-09-12T02:23:07;98903.98;;;20.88;95.11
70488;BME280;57976;48.174;16.370;2023-09-12T02:25:12;98903.30;;;20.86;95.19
70488;BME280;57976;48.174;16.370;2023-09-12T02:27:17;98900.30;;;20.86;95.43
70488;BME280;57976;48.174;16.370;2023-09-12T02:29:22;98902.74;;;20.87;95.47
70488;BME280;57976;48.174;16.370;2023-09-12T02:31:27;98903.77;;;20.87;95.36
70488;BME280;57976;48.174;16.370;2023-09-12T02:33:31;98902.31;;;20.86;95.34
70488;BME280;57976;48.174;16.370;2023-09-12T02:35:36;98906.05;;;20.85;95.70
70488;BME280;57976;48.174;16.370;2023-09-12T02:37:41;98909.02;;;20.85;95.45
70488;BME280;57976;48.174;16.370;2023-09-12T02:39:46;98913.73;;;20.84;95.73
70488;BME280;57976;48.174;16.370;2023-09-12T02:41:51;98911.79;;;20.85;95.94
70488;BME280;57976;48.174;16.370;2023-09-12T02:43:55;98912.65;;;20.86;95.94
70488;BME280;57976;48.174;16.370;2023-09-12T02:46:00;98906.20;;;20.87;95.98
70488;BME280;57976;48.174;16.370;2023-09-12T02:48:06;98910.58;;;20.89;96.13
70488;BME280;57976;48.174;16.370;2023-09-12T02:50:11;98906.95;;;20.90;96.06
70488;BME280;57976;48.174;16.370;2023-09-12T02:52:16;98906.67;;;20.91;95.66
70488;BME280;57976;48.174;16.370;2023-09-12T02:54:20;98907.43;;;20.90;95.61
70488;BME280;57976;48.174;16.370;2023-09-12T02:56:25;98909.83;;;20.90;95.67
70488;BME280;57976;48.174;16.370;2023-09-12T02:58:30;98915.55;;;20.92;96.03
70488;BME280;57976;48.174;16.370;2023-09-12T03:00:39;98917.27;;;20.95;95.94
70488;BME280;57976;48.174;16.370;2023-09-12T03:02:44;98921.92;;;20.96;96.13
70488;BME280;57976;48.174;16.370;2023-09-12T03:04:49;98919.16;;;20.96;96.03
70488;BME280;57976;48.174;16.370;2023-09-12T03:06:54;98919.81;;;20.96;95.67
70488;BME280;57976;48.174;16.370;2023-09-12T03:08:59;98922.41;;;20.95;95.62
70488;BME280;57976;48.174;16.370;2023-09-12T03:11:04;98920.20;;;20.93;95.53
70488;BME280;57976;48.174;16.370;2023-09-12T03:13:08;98923.50;;;20.93;95.80
70488;BME280;57976;48.174;16.370;2023-09-12T03:15:16;98924.84;;;20.95;95.81
70488;BME280;57976;48.174;16.370;2023-09-12T03:17:22;98925.28;;;20.95;95.68
70488;BME280;57976;48.174;16.370;2023-09-12T03:19:28;98923.23;;;20.96;95.63
70488;BME280;57976;48.174;16.370;2023-09-12T03:21:34;98922.46;;;20.96;95.78
70488;BME280;57976;48.174;16.370;2023-09-12T03:23:39;98924.73;;;20.97;95.82
70488;BME280;57976;48.174;16.370;2023-09-12T03:25:45;98923.65;;;20.97;95.65
70488;BME280;57976;48.174;16.370;2023-09-12T03:27:51;98925.88;;;20.98;95.70
70488;BME280;57976;48.174;16.370;2023-09-12T03:29:56;98927.33;;;21.00;95.82
70488;BME280;57976;48.174;16.370;2023-09-12T03:32:01;98928.34;;;21.01;95.99
70488;BME280;57976;48.174;16.370;2023-09-12T03:34:06;98933.17;;;21.00;95.93
70488;BME280;57976;48.174;16.370;2023-09-12T03:36:11;98931.45;;;20.97;96.01
70488;BME280;57976;48.174;16.370;2023-09-12T03:38:16;98930.00;;;20.94;96.06
70488;BME280;57976;48.174;16.370;2023-09-12T03:40:21;98932.50;;;20.94;96.24
70488;BME280;57976;48.174;16.370;2023-09-12T03:42:26;98932.98;;;20.95;96.18
70488;BME280;57976;48.174;16.370;2023-09-12T03:44:45;98933.63;;;20.95;96.15
70488;BME280;57976;48.174;16.370;2023-09-12T03:46:49;98932.17;;;20.94;96.32
70488;BME280;57976;48.174;16.370;2023-09-12T03:48:54;98929.36;;;20.94;96.31
70488;BME280;57976;48.174;16.370;2023-09-12T03:50:59;98931.69;;;20.93;96.28
70488;BME280;57976;48.174;16.370;2023-09-12T03:53:04;98929.52;;;20.93;96.43
70488;BME280;57976;48.174;16.370;2023-09-12T03:55:09;98931.68;;;20.94;96.40
70488;BME280;57976;48.174;16.370;2023-09-12T03:57:14;98926.14;;;20.96;96.52
70488;BME280;57976;48.174;16.370;2023-09-12T03:59:19;98927.59;;;21.00;96.41
70488;BME280;57976;48.174;16.370;2023-09-12T04:01:24;98927.87;;;21.04;96.25
70488;BME280;57976;48.174;16.370;2023-09-12T04:03:29;98923.75;;;21.05;95.73
70488;BME280;57976;48.174;16.370;2023-09-12T04:05:34;98921.59;;;21.05;95.78
70488;BME280;57976;48.174;16.370;2023-09-12T04:07:39;98920.86;;;21.03;95.83
70488;BME280;57976;48.174;16.370;2023-09-12T04:09:46;98923.48;;;21.02;95.82
70488;BME280;57976;48.174;16.370;2023-09-12T04:11:51;98921.58;;;21.00;95.71
70488;BME280;57976;48.174;16.370;2023-09-12T04:13:58;98919.61;;;20.94;96.06
70488;BME280;57976;48.174;16.370;2023-09-12T04:16:02;98919.52;;;20.88;96.27
70488;BME280;57976;48.174;16.370;2023-09-12T04:18:08;98919.02;;;20.81;97.13
70488;BME280;57976;48.174;16.370;2023-09-12T04:20:13;98920.92;;;20.77;97.60
70488;BME280;57976;48.174;16.370;2023-09-12T04:22:18;98922.98;;;20.73;97.80
70488;BME280;57976;48.174;16.370;2023-09-12T04:24:26;98926.20;;;20.68;98.39
70488;BME280;57976;48.174;16.370;2023-09-12T04:26:31;98926.81;;;20.65;99.34
70488;BME280;57976;48.174;16.370;2023-09-12T04:28:36;98924.61;;;20.61;99.61
70488;BME280;57976;48.174;16.370;2023-09-12T04:30:41;98925.64;;;20.58;99.56
70488;BME280;57976;48.174;16.370;2023-09-12T04:32:50;98922.08;;;20.54;99.95
70488;BME280;57976;48.174;16.370;2023-09-12T04:34:55;98924.91;;;20.51;100.00
70488;BME280;57976;48.174;16.370;2023-09-12T04:36:59;98923.08;;;20.49;100.00
70488;BME280;57976;48.174;16.370;2023-09-12T04:39:05;98925.65;;;20.49;100.00
70488;BME280;57976;48.174;16.370;2023-09-12T04:41:11;98925.66;;;20.49;100.00
70488;BME280;57976;48.174;16.370;2023-09-12T04:43:16;98925.39;;;20.50;100.00
70488;BME280;57976;48.174;16.370;2023-09-12T04:45:20;98925.02;;;20.49;100.00
70488;BME280;57976;48.174;16.370;2023-09-12T04:47:25;98925.45;;;20.48;100.00
70488;BME280;57976;48.174;16.370;2023-09-12T04:49:30;98927.73;;;20.45;100.00
70488;BME280;57976;48.174;16.370;2023-09-12T04:51:35;98932.34;;;20.44;100.00
70488;BME280;57976;48.174;16.370;2023-09-12T04:53:40;98935.10;;;20.42;100.00
70488;BME280;57976;48.174;16.370;2023-09-12T04:55:45;98939.16;;;20.41;100.00
70488;BME280;57976;48.174;16.370;2023-09-12T04:57:50;98941.70;;;20.43;100.00
70488;BME280;57976;48.174;16.370;2023-09-12T04:59:55;98943.16;;;20.48;100.00
70488;BME280;57976;48.174;16.370;2023-09-12T05:02:00;98939.40;;;20.52;100.00
70488;BME280;57976;48.174;16.370;2023-09-12T05:04:05;98937.34;;;20.55;100.00
70488;BME280;57976;48.174;16.370;2023-09-12T05:06:09;98942.96;;;20.58;100.00
70488;BME280;57976;48.174;16.370;2023-09-12T05:08:15;98936.09;;;20.61;100.00
70488;BME280;57976;48.174;16.370;2023-09-12T05:10:19;98937.58;;;20.66;100.00
70488;BME280;57976;48.174;16.370;2023-09-12T05:12:25;98936.92;;;20.70;100.00
70488;BME280;57976;48.174;16.370;2023-09-12T05:14:30;98938.31;;;20.75;100.00
70488;BME280;57976;48.174;16.370;2023-09-12T05:16:35;98940.52;;;20.78;100.00
70488;BME280;57976;48.174;16.370;2023-09-12T05:18:40;98941.09;;;20.84;100.00
70488;BME280;57976;48.174;16.370;2023-09-12T05:20:45;98939.79;;;20.86;100.00
70488;BME280;57976;48.174;16.370;2023-09-12T05:22:50;98939.60;;;20.91;100.00
70488;BME280;57976;48.174;16.370;2023-09-12T05:24:55;98938.98;;;20.96;100.00
70488;BME280;57976;48.174;16.370;2023-09-12T05:27:00;98937.19;;;21.03;100.00
70488;BME280;57976;48.174;16.370;2023-09-12T05:29:04;98939.81;;;21.09;100.00
70488;BME280;57976;48.174;16.370;2023-09-12T05:31:09;98940.55;;;21.15;100.00
70488;BME280;57976;48.174;16.370;2023-09-12T05:33:14;98940.09;;;21.21;100.00
70488;BME280;57976;48.174;16.370;2023-09-12T05:35:20;98941.15;;;21.26;100.00
70488;BME280;57976;48.174;16.370;2023-09-12T05:37:27;98939.58;;;21.27;99.96
70488;BME280;57976;48.174;16.370;2023-09-12T05:39:32;98940.55;;;21.26;99.94
70488;BME280;57976;48.174;16.370;2023-09-12T05:41:37;98943.85;;;21.27;100.00
70488;BME280;57976;48.174;16.370;2023-09-12T05:43:42;98944.66;;;21.26;100.00
70488;BME280;57976;48.174;16.370;2023-09-12T05:45:47;98944.92;;;21.29;100.00
70488;BME280;57976;48.174;16.370;2023-09-12T05:47:52;98949.73;;;21.34;99.89
70488;BME280;57976;48.174;16.370;2023-09-12T05:49:57;98949.29;;;21.35;99.74
70488;BME280;57976;48.174;16.370;2023-09-12T05:52:01;98950.02;;;21.40;99.47
70488;BME280;57976;48.174;16.370;2023-09-12T05:54:07;98951.08;;;21.43;99.41
70488;BME280;57976;48.174;16.370;2023-09-12T05:56:12;98953.34;;;21.46;98.88
70488;BME280;57976;48.174;16.370;2023-09-12T05:58:17;98954.30;;;21.47;98.39
70488;BME280;57976;48.174;16.370;2023-09-12T06:00:22;98954.62;;;21.49;98.00
70488;BME280;57976;48.174;16.370;2023-09-12T06:02:27;98956.29;;;21.52;97.67
70488;BME280;57976;48.174;16.370;2023-09-12T06:04:32;98955.04;;;21.51;97.55
70488;BME280;57976;48.174;16.370;2023-09-12T06:06:37;98953.74;;;21.49;97.91
70488;BME280;57976;48.174;16.370;2023-09-12T06:08:42;98958.86;;;21.48;98.07
70488;BME280;57976;48.174;16.370;2023-09-12T06:10:47;98959.06;;;21.49;98.13
70488;BME280;57976;48.174;16.370;2023-09-12T06:12:52;98957.94;;;21.48;98.30
70488;BME280;57976;48.174;16.370;2023-09-12T06:14:57;98960.77;;;21.45;98.36
70488;BME280;57976;48.174;16.370;2023-09-12T06:17:02;98961.91;;;21.46;98.34
70488;BME280;57976;48.174;16.370;2023-09-12T06:19:06;98961.55;;;21.51;98.15
70488;BME280;57976;48.174;16.370;2023-09-12T06:21:12;98957.73;;;21.54;98.11
70488;BME280;57976;48.174;16.370;2023-09-12T06:23:17;98957.60;;;21.58;98.04
70488;BME280;57976;48.174;16.370;2023-09-12T06:25:21;98956.73;;;21.66;97.72
70488;BME280;57976;48.174;16.370;2023-09-12T06:27:26;98963.35;;;21.73;97.42
70488;BME280;57976;48.174;16.370;2023-09-12T06:29:31;98957.17;;;21.80;97.21
70488;BME280;57976;48.174;16.370;2023-09-12T06:31:37;98957.08;;;21.89;96.79
70488;BME280;57976;48.174;16.370;2023-09-12T06:33:42;98959.55;;;21.92;96.53
70488;BME280;57976;48.174;16.370;2023-09-12T06:35:49;98959.49;;;21.93;96.69
70488;BME280;57976;48.174;16.370;2023-09-12T06:37:54;98957.41;;;21.95;96.55
70488;BME280;57976;48.174;16.370;2023-09-12T06:39:59;98955.39;;;21.90;96.58
70488;BME280;57976;48.174;16.370;2023-09-12T06:42:04;98955.83;;;21.90;96.31
70488;BME280;57976;48.174;16.370;2023-09-12T06:44:09;98961.88;;;21.93;96.54
70488;BME280;57976;48.174;16.370;2023-09-12T06:46:14;98963.00;;;21.96;96.25
70488;BME280;57976;48.174;16.370;2023-09-12T06:48:19;98965.11;;;22.01;96.08
70488;BME280;57976;48.174;16.370;2023-09-12T06:50:24;98968.40;;;22.06;95.92
70488;BME280;57976;48.174;16.370;2023-09-12T06:52:34;98969.79;;;22.09;95.32
70488;BME280;57976;48.174;16.370;2023-09-12T06:54:39;98969.52;;;22.15;95.10
70488;BME280;57976;48.174;16.370;2023-09-12T06:56:44;98976.60;;;22.24;95.02
70488;BME280;57976;48.174;16.370;2023-09-12T06:58:49;98976.96;;;22.32;94.33
70488;BME280;57976;48.174;16.370;2023-09-12T07:00:54;98974.90;;;22.38;93.77
70488;BME280;57976;48.174;16.370;2023-09-12T07:02:59;98975.94;;;22.44;93.52
70488;BME280;57976;48.174;16.370;2023-09-12T07:05:06;98973.48;;;22.49;93.45
70488;BME280;57976;48.174;16.370;2023-09-12T07:07:11;98972.17;;;22.56;93.29
70488;BME280;57976;48.174;16.370;2023-09-12T07:09:16;98974.46;;;22.63;93.13
70488;BME280;57976;48.174;16.370;2023-09-12T07:11:21;98974.31;;;22.72;92.62
70488;BME280;57976;48.174;16.370;2023-09-12T07:13:26;98967.82;;;22.79;92.04
70488;BME280;57976;48.174;16.370;2023-09-12T07:15:31;98973.98;;;22.87;91.59
70488;BME280;57976;48.174;16.370;2023-09-12T07:17:36;98980.98;;;22.97;90.86
70488;BME280;57976;48.174;16.370;2023-09-12T07:19:41;98982.01;;;23.03;89.77
70488;BME280;57976;48.174;16.370;2023-09-12T07:21:48;98979.14;;;23.10;90.11
70488;BME280;57976;48.174;16.370;2023-09-12T07:23:53;98981.90;;;23.15;89.26
70488;BME280;57976;48.174;16.370;2023-09-12T07:25:58;98988.40;;;23.18;89.01
70488;BME280;57976;48.174;16.370;2023-09-12T07:28:04;98991.13;;;23.22;88.36
70488;BME280;57976;48.174;16.370;2023-09-12T07:30:10;98987.83;;;23.25;88.28
70488;BME280;57976;48.174;16.370;2023-09-12T07:32:15;98986.14;;;23.32;88.17
70488;BME280;57976;48.174;16.370;2023-09-12T07:34:20;98985.38;;;23.38;87.64
70488;BME280;57976;48.174;16.370;2023-09-12T07:36:25;98986.25;;;23.42;87.09
70488;BME280;57976;48.174;16.370;2023-09-12T07:38:30;98984.98;;;23.39;86.97
70488;BME280;57976;48.174;16.370;2023-09-12T07:40:35;98983.38;;;23.42;86.71
70488;BME280;57976;48.174;16.370;2023-09-12T07:42:40;98985.29;;;23.46;86.61
70488;BME280;57976;48.174;16.370;2023-09-12T07:44:45;98986.85;;;23.50;86.50
70488;BME280;57976;48.174;16.370;2023-09-12T07:46:50;98987.19;;;23.55;86.40
70488;BME280;57976;48.174;16.370;2023-09-12T07:48:55;98984.50;;;23.60;86.01
70488;BME280;57976;48.174;16.370;2023-09-12T07:51:00;98984.42;;;23.65;85.55
70488;BME280;57976;48.174;16.370;2023-09-12T07:53:05;98980.48;;;23.71;85.17
70488;BME280;57976;48.174;16.370;2023-09-12T07:55:11;98980.92;;;23.74;84.81
70488;BME280;57976;48.174;16.370;2023-09-12T07:57:16;98986.81;;;23.80;84.33
70488;BME280;57976;48.174;16.370;2023-09-12T07:59:21;98987.48;;;23.83;84.20
70488;BME280;57976;48.174;16.370;2023-09-12T08:01:28;98985.30;;;23.89;83.56
70488;BME280;57976;48.174;16.370;2023-09-12T08:03:34;98984.39;;;23.96;83.78
70488;BME280;57976;48.174;16.370;2023-09-12T08:05:39;98980.41;;;24.03;83.15
70488;BME280;57976;48.174;16.370;2023-09-12T08:07:44;98982.84;;;24.04;82.54
70488;BME280;57976;48.174;16.370;2023-09-12T08:09:54;98981.70;;;24.03;81.94
70488;BME280;57976;48.174;16.370;2023-09-12T08:11:59;98979.64;;;24.04;82.18
70488;BME280;57976;48.174;16.370;2023-09-12T08:14:05;98979.63;;;24.09;82.15
70488;BME280;57976;48.174;16.370;2023-09-12T08:16:10;98981.35;;;24.17;81.70
70488;BME280;57976;48.174;16.370;2023-09-12T08:18:15;98979.83;;;24.24;80.25
70488;BME280;57976;48.174;16.370;2023-09-12T08:20:20;98984.76;;;24.25;80.27
70488;BME280;57976;48.174;16.370;2023-09-12T08:22:25;98981.85;;;24.27;80.88
70488;BME280;57976;48.174;16.370;2023-09-12T08:24:30;98984.76;;;24.34;80.91
70488;BME280;57976;48.174;16.370;2023-09-12T08:26:35;98986.84;;;24.40;80.15
70488;BME280;57976;48.174;16.370;2023-09-12T08:28:41;98988.33;;;24.45;79.47
70488;BME280;57976;48.174;16.370;2023-09-12T08:30:46;98986.68;;;24.49;79.48
70488;BME280;57976;48.174;16.370;2023-09-12T08:32:51;98990.97;;;24.56;79.29
70488;BME280;57976;48.174;16.370;2023-09-12T08:34:56;98987.44;;;24.63;79.35
70488;BME280;57976;48.174;16.370;2023-09-12T08:37:01;98986.80;;;24.73;78.96
70488;BME280;57976;48.174;16.370;2023-09-12T08:39:06;98987.73;;;24.82;77.58
70488;BME280;57976;48.174;16.370;2023-09-12T08:41:11;98989.77;;;24.84;77.60
70488;BME280;57976;48.174;16.370;2023-09-12T08:43:17;98993.14;;;24.89;77.51
70488;BME280;57976;48.174;16.370;2023-09-12T08:45:22;98989.39;;;24.98;77.61
70488;BME280;57976;48.174;16.370;2023-09-12T08:47:27;98990.94;;;25.04;76.94
70488;BME280;57976;48.174;16.370;2023-09-12T08:49:35;98988.34;;;25.12;76.47
70488;BME280;57976;48.174;16.370;2023-09-12T08:51:40;98985.37;;;25.17;75.62
70488;BME280;57976;48.174;16.370;2023-09-12T08:53:45;98982.25;;;25.18;75.29
70488;BME280;57976;48.174;16.370;2023-09-12T08:55:51;98982.05;;;25.20;75.24
70488;BME280;57976;48.174;16.370;2023-09-12T08:57:57;98979.60;;;25.25;75.02
70488;BME280;57976;48.174;16.370;2023-09-12T09:00:04;98979.50;;;25.30;74.93
70488;BME280;57976;48.174;16.370;2023-09-12T09:02:10;98978.93;;;25.38;74.79
70488;BME280;57976;48.174;16.370;2023-09-12T09:04:16;98972.83;;;25.47;74.28
70488;BME280;57976;48.174;16.370;2023-09-12T09:06:23;98972.13;;;25.54;73.84
70488;BME280;57976;48.174;16.370;2023-09-12T09:08:29;98969.73;;;25.62;73.53
70488;BME280;57976;48.174;16.370;2023-09-12T09:10:35;98967.74;;;25.72;73.44
70488;BME280;57976;48.174;16.370;2023-09-12T09:12:54;98968.92;;;25.82;73.02
70488;BME280;57976;48.174;16.370;2023-09-12T09:14:59;98964.25;;;25.90;72.78
70488;BME280;57976;48.174;16.370;2023-09-12T09:17:24;98964.67;;;26.00;71.97
70488;BME280;57976;48.174;16.370;2023-09-12T09:19:43;98964.36;;;26.01;71.77
70488;BME280;57976;48.174;16.370;2023-09-12T09:21:48;98966.06;;;26.05;71.16
70488;BME280;57976;48.174;16.370;2023-09-12T09:23:54;98964.33;;;26.07;70.95
70488;BME280;57976;48.174;16.370;2023-09-12T09:25:59;98963.35;;;26.10;70.91
70488;BME280;57976;48.174;16.370;2023-09-12T09:28:06;98960.62;;;26.14;70.55
70488;BME280;57976;48.174;16.370;2023-09-12T09:30:41;98961.69;;;26.18;70.35
70488;BME280;57976;48.174;16.370;2023-09-12T09:32:46;98962.36;;;26.23;69.91
70488;BME280;57976;48.174;16.370;2023-09-12T09:34:54;98961.17;;;26.29;69.84
70488;BME280;57976;48.174;16.370;2023-09-12T09:36:59;98957.52;;;26.33;69.99
70488;BME280;57976;48.174;16.370;2023-09-12T09:39:07;98959.70;;;26.37;69.70
70488;BME280;57976;48.174;16.370;2023-09-12T09:41:12;98959.27;;;26.41;69.54
70488;BME280;57976;48.174;16.370;2023-09-12T09:43:20;98955.10;;;26.46;69.42
70488;BME280;57976;48.174;16.370;2023-09-12T09:45:26;98955.18;;;26.51;69.68
70488;BME280;57976;48.174;16.370;2023-09-12T09:47:31;98958.04;;;26.59;68.98
70488;BME280;57976;48.174;16.370;2023-09-12T09:49:37;98956.54;;;26.64;68.39
70488;BME280;57976;48.174;16.370;2023-09-12T09:51:43;98956.70;;;26.66;67.84
70488;BME280;57976;48.174;16.370;2023-09-12T09:53:52;98953.64;;;26.65;68.19
70488;BME280;57976;48.174;16.370;2023-09-12T09:56:10;98953.48;;;26.70;68.15
70488;BME280;57976;48.174;16.370;2023-09-12T09:58:17;98948.08;;;26.69;67.90
70488;BME280;57976;48.174;16.370;2023-09-12T10:00:23;98948.77;;;26.71;68.30
70488;BME280;57976;48.174;16.370;2023-09-12T10:02:30;98942.69;;;26.75;68.24
70488;BME280;57976;48.174;16.370;2023-09-12T10:04:36;98942.31;;;26.77;67.54
70488;BME280;57976;48.174;16.370;2023-09-12T10:06:45;98939.71;;;26.78;67.78
70488;BME280;57976;48.174;16.370;2023-09-12T10:08:53;98939.72;;;26.81;66.93
70488;BME280;57976;48.174;16.370;2023-09-12T10:10:58;98934.66;;;26.80;66.87
70488;BME280;57976;48.174;16.370;2023-09-12T10:13:04;98936.73;;;26.84;67.03
70488;BME280;57976;48.174;16.370;2023-09-12T10:15:13;98937.89;;;26.90;66.98
70488;BME280;57976;48.174;16.370;2023-09-12T10:17:20;98933.98;;;26.95;66.83
70488;BME280;57976;48.174;16.370;2023-09-12T10:19:35;98933.70;;;27.02;67.20
70488;BME280;57976;48.174;16.370;2023-09-12T10:21:45;98923.91;;;27.07;65.76
70488;BME280;57976;48.174;16.370;2023-09-12T10:23:51;98926.58;;;27.09;66.38
70488;BME280;57976;48.174;16.370;2023-09-12T10:25:57;98919.58;;;27.14;66.54
70488;BME280;57976;48.174;16.370;2023-09-12T10:28:03;98915.67;;;27.22;65.95
70488;BME280;57976;48.174;16.370;2023-09-12T10:30:11;98913.59;;;27.26;65.56
70488;BME280;57976;48.174;16.370;2023-09-12T10:32:16;98909.64;;;27.34;65.83
70488;BME280;57976;48.174;16.370;2023-09-12T10:34:22;98910.71;;;27.44;65.81
70488;BME280;57976;48.174;16.370;2023-09-12T10:36:30;98911.80;;;27.56;65.26
70488;BME280;57976;48.174;16.370;2023-09-12T10:38:43;98910.13;;;27.62;64.66
70488;BME280;57976;48.174;16.370;2023-09-12T10:40:50;98911.56;;;27.68;63.48
70488;BME280;57976;48.174;16.370;2023-09-12T10:42:58;98914.92;;;27.66;62.71
70488;BME280;57976;48.174;16.370;2023-09-12T10:45:07;98911.58;;;27.65;64.10
70488;BME280;57976;48.174;16.370;2023-09-12T10:47:13;98907.06;;;27.67;63.36
70488;BME280;57976;48.174;16.370;2023-09-12T10:49:18;98905.32;;;27.68;62.88
70488;BME280;57976;48.174;16.370;2023-09-12T10:51:24;98904.14;;;27.68;63.03
70488;BME280;57976;48.174;16.370;2023-09-12T10:53:29;98910.54;;;27.75;63.13
70488;BME280;57976;48.174;16.370;2023-09-12T10:55:35;98910.63;;;27.86;62.19
70488;BME280;57976;48.174;16.370;2023-09-12T10:58:04;98908.98;;;27.91;62.12
70488;BME280;57976;48.174;16.370;2023-09-12T11:00:14;98905.16;;;28.01;62.18